sensor_id;sensor_type;location;lat;lon;timestamp;P1;durP1;ratioP1;P2;durP2;ratioP2
57565;SDS011;63999;43.882;-0.310;2023-12-22T00:00:29;1.98;;;0.60;;
57565;SDS011;63999;43.882;-0.310;2023-12-22T00:02:54;4.10;;;0.65;;
57565;SDS011;63999;43.882;-0.310;2023-12-22T00:05:20;3.50;;;0.68;;
57565;SDS011;63999;43.882;-0.310;2023-12-22T00:07:46;2.80;;;0.60;;
57565;SDS011;63999;43.882;-0.310;2023-12-22T00:10:12;4.43;;;0.82;;
57565;SDS011;63999;43.882;-0.310;2023-12-22T00:12:37;2.53;;;0.43;;
57565;SDS011;63999;43.882;-0.310;2023-12-22T00:15:04;9.70;;;1.08;;
57565;SDS011;63999;43.882;-0.310;2023-12-22T00:17:31;5.70;;;1.10;;
57565;SDS011;63999;43.882;-0.310;2023-12-22T00:19:56;3.90;;;0.88;;
57565;SDS011;63999;43.882;-0.310;2023-12-22T00:22:24;4.35;;;0.60;;
57565;SDS011;63999;43.882;-0.310;2023-12-22T00:24:50;4.82;;;1.00;;
57565;SDS011;63999;43.882;-0.310;2023-12-22T00:27:16;6.53;;;0.95;;
57565;SDS011;63999;43.882;-0.310;2023-12-22T00:29:42;1.00;;;0.38;;
57565;SDS011;63999;43.882;-0.310;2023-12-22T00:32:08;1.33;;;0.88;;
57565;SDS011;63999;43.882;-0.310;2023-12-22T00:34:35;6.85;;;0.88;;
57565;SDS011;63999;43.882;-0.310;2023-12-22T00:37:01;7.47;;;0.82;;
57565;SDS011;63999;43.882;-0.310;2023-12-22T00:39:27;2.65;;;0.55;;
57565;SDS011;63999;43.882;-0.310;2023-12-22T00:41:53;3.25;;;0.77;;
57565;SDS011;63999;43.882;-0.310;2023-12-22T00:44:19;1.42;;;0.73;;
57565;SDS011;63999;43.882;-0.310;2023-12-22T00:46:45;1.63;;;0.43;;
57565;SDS011;63999;43.882;-0.310;2023-12-22T00:49:11;2.67;;;0.75;;
57565;SDS011;63999;43.882;-0.310;2023-12-22T00:51:36;4.00;;;1.15;;
57565;SDS011;63999;43.882;-0.310;2023-12-22T00:54:02;3.00;;;0.30;;
57565;SDS011;63999;43.882;-0.310;2023-12-22T00:56:28;2.60;;;0.50;;
57565;SDS011;63999;43.882;-0.310;2023-12-22T00:58:53;0.52;;;0.30;;
57565;SDS011;63999;43.882;-0.310;2023-12-22T01:01:19;0.90;;;0.35;;
57565;SDS011;63999;43.882;-0.310;2023-12-22T01:03:46;2.00;;;0.70;;
57565;SDS011;63999;43.882;-0.310;2023-12-22T01:06:12;0.75;;;0.50;;
57565;SDS011;63999;43.882;-0.310;2023-12-22T01:08:37;2.40;;;0.43;;
57565;SDS011;63999;43.882;-0.310;2023-12-22T01:11:03;1.30;;;0.45;;
57565;SDS011;63999;43.882;-0.310;2023-12-22T01:13:29;0.57;;;0.30;;
57565;SDS011;63999;43.882;-0.310;2023-12-22T01:15:55;0.52;;;0.30;;
57565;SDS011;63999;43.882;-0.310;2023-12-22T01:18:20;1.13;;;0.40;;
57565;SDS011;63999;43.882;-0.310;2023-12-22T01:20:46;1.70;;;0.40;;
57565;SDS011;63999;43.882;-0.310;2023-12-22T01:23:12;2.10;;;0.90;;
57565;SDS011;63999;43.882;-0.310;2023-12-22T01:25:38;1.90;;;0.38;;
57565;SDS011;63999;43.882;-0.310;2023-12-22T01:28:03;2.15;;;0.30;;
57565;SDS011;63999;43.882;-0.310;2023-12-22T01:30:29;0.40;;;0.25;;
57565;SDS011;63999;43.882;-0.310;2023-12-22T01:32:55;0.90;;;0.57;;
57565;SDS011;63999;43.882;-0.310;2023-12-22T01:35:21;0.20;;;0.10;;
57565;SDS011;63999;43.882;-0.310;2023-12-22T01:37:47;0.90;;;0.40;;
57565;SDS011;63999;43.882;-0.310;2023-12-22T01:40:13;1.35;;;0.60;;
57565;SDS011;63999;43.882;-0.310;2023-12-22T01:42:39;1.35;;;0.32;;
57565;SDS011;63999;43.882;-0.310;2023-12-22T01:45:05;1.35;;;0.30;;
57565;SDS011;63999;43.882;-0.310;2023-12-22T01:47:32;0.70;;;0.20;;
57565;SDS011;63999;43.882;-0.310;2023-12-22T01:49:58;1.75;;;0.50;;
57565;SDS011;63999;43.882;-0.310;2023-12-22T01:52:25;0.20;;;0.20;;
57565;SDS011;63999;43.882;-0.310;2023-12-22T01:54:51;0.43;;;0.17;;
57565;SDS011;63999;43.882;-0.310;2023-12-22T01:57:17;0.73;;;0.40;;
57565;SDS011;63999;43.882;-0.310;2023-12-22T01:59:44;1.52;;;0.35;;
57565;SDS011;63999;43.882;-0.310;2023-12-22T02:02:11;0.20;;;0.20;;
57565;SDS011;63999;43.882;-0.310;2023-12-22T02:04:37;0.52;;;0.30;;
57565;SDS011;63999;43.882;-0.310;2023-12-22T02:07:04;0.75;;;0.20;;
57565;SDS011;63999;43.882;-0.310;2023-12-22T02:09:33;0.20;;;0.20;;
57565;SDS011;63999;43.882;-0.310;2023-12-22T02:12:00;0.30;;;0.10;;
57565;SDS011;63999;43.882;-0.310;2023-12-22T02:14:26;0.47;;;0.10;;
57565;SDS011;63999;43.882;-0.310;2023-12-22T02:16:59;0.57;;;0.30;;
57565;SDS011;63999;43.882;-0.310;2023-12-22T02:19:47;0.10;;;0.10;;
57565;SDS011;63999;43.882;-0.310;2023-12-22T02:22:13;0.90;;;0.15;;
57565;SDS011;63999;43.882;-0.310;2023-12-22T02:24:40;0.15;;;0.10;;
57565;SDS011;63999;43.882;-0.310;2023-12-22T02:30:02;0.55;;;0.10;;
57565;SDS011;63999;43.882;-0.310;2023-12-22T02:32:30;0.98;;;0.20;;
57565;SDS011;63999;43.882;-0.310;2023-12-22T02:34:59;0.20;;;0.20;;
57565;SDS011;63999;43.882;-0.310;2023-12-22T02:37:28;1.02;;;0.20;;
57565;SDS011;63999;43.882;-0.310;2023-12-22T02:39:54;0.10;;;0.10;;
57565;SDS011;63999;43.882;-0.310;2023-12-22T02:42:21;0.57;;;0.20;;
57565;SDS011;63999;43.882;-0.310;2023-12-22T02:44:52;0.20;;;0.10;;
57565;SDS011;63999;43.882;-0.310;2023-12-22T02:47:17;2.10;;;0.40;;
57565;SDS011;63999;43.882;-0.310;2023-12-22T02:49:43;0.98;;;0.22;;
57565;SDS011;63999;43.882;-0.310;2023-12-22T02:52:09;0.75;;;0.25;;
57565;SDS011;63999;43.882;-0.310;2023-12-22T02:54:35;0.10;;;0.10;;
57565;SDS011;63999;43.882;-0.310;2023-12-22T02:57:00;0.35;;;0.20;;
57565;SDS011;63999;43.882;-0.310;2023-12-22T02:59:26;0.10;;;0.10;;
57565;SDS011;63999;43.882;-0.310;2023-12-22T03:01:54;0.10;;;0.10;;
57565;SDS011;63999;43.882;-0.310;2023-12-22T03:04:20;0.38;;;0.10;;
57565;SDS011;63999;43.882;-0.310;2023-12-22T03:06:45;0.85;;;0.30;;
57565;SDS011;63999;43.882;-0.310;2023-12-22T03:09:11;0.20;;;0.20;;
57565;SDS011;63999;43.882;-0.310;2023-12-22T03:11:37;0.35;;;0.20;;
57565;SDS011;63999;43.882;-0.310;2023-12-22T03:14:02;1.65;;;0.20;;
57565;SDS011;63999;43.882;-0.310;2023-12-22T03:16:28;0.28;;;0.17;;
57565;SDS011;63999;43.882;-0.310;2023-12-22T03:18:54;0.10;;;0.10;;
57565;SDS011;63999;43.882;-0.310;2023-12-22T03:21:20;0.55;;;0.22;;
57565;SDS011;63999;43.882;-0.310;2023-12-22T03:23:46;0.30;;;0.10;;
57565;SDS011;63999;43.882;-0.310;2023-12-22T03:26:11;0.20;;;0.10;;
57565;SDS011;63999;43.882;-0.310;2023-12-22T03:28:37;0.17;;;0.17;;
57565;SDS011;63999;43.882;-0.310;2023-12-22T03:31:03;0.10;;;0.10;;
57565;SDS011;63999;43.882;-0.310;2023-12-22T03:33:29;0.10;;;0.10;;
57565;SDS011;63999;43.882;-0.310;2023-12-22T03:35:55;0.17;;;0.15;;
57565;SDS011;63999;43.882;-0.310;2023-12-22T03:38:20;1.45;;;0.20;;
57565;SDS011;63999;43.882;-0.310;2023-12-22T03:40:46;0.10;;;0.10;;
57565;SDS011;63999;43.882;-0.310;2023-12-22T03:43:12;0.80;;;0.10;;
57565;SDS011;63999;43.882;-0.310;2023-12-22T03:45:38;0.10;;;0.10;;
57565;SDS011;63999;43.882;-0.310;2023-12-22T03:48:04;0.10;;;0.10;;
57565;SDS011;63999;43.882;-0.310;2023-12-22T03:50:30;0.00;;;0.00;;
57565;SDS011;63999;43.882;-0.310;2023-12-22T03:52:55;0.10;;;0.10;;
57565;SDS011;63999;43.882;-0.310;2023-12-22T03:55:21;0.63;;;0.10;;
57565;SDS011;63999;43.882;-0.310;2023-12-22T03:57:47;0.20;;;0.10;;
57565;SDS011;63999;43.882;-0.310;2023-12-22T04:00:13;0.35;;;0.10;;
57565;SDS011;63999;43.882;-0.310;2023-12-22T04:02:41;0.13;;;0.10;;
57565;SDS011;63999;43.882;-0.310;2023-12-22T04:05:07;0.10;;;0.10;;
57565;SDS011;63999;43.882;-0.310;2023-12-22T04:07:32;0.10;;;0.10;;
57565;SDS011;63999;43.882;-0.310;2023-12-22T04:09:58;0.50;;;0.22;;
57565;SDS011;63999;43.882;-0.310;2023-12-22T04:12:24;0.10;;;0.10;;
57565;SDS011;63999;43.882;-0.310;2023-12-22T04:14:50;0.20;;;0.20;;
57565;SDS011;63999;43.882;-0.310;2023-12-22T04:17:16;0.43;;;0.10;;
57565;SDS011;63999;43.882;-0.310;2023-12-22T04:19:42;0.20;;;0.20;;
57565;SDS011;63999;43.882;-0.310;2023-12-22T04:22:07;0.95;;;0.20;;
57565;SDS011;63999;43.882;-0.310;2023-12-22T04:24:33;0.73;;;0.10;;
57565;SDS011;63999;43.882;-0.310;2023-12-22T04:26:59;0.13;;;0.13;;
57565;SDS011;63999;43.882;-0.310;2023-12-22T04:30:10;1.02;;;0.30;;
57565;SDS011;63999;43.882;-0.310;2023-12-22T04:32:46;0.13;;;0.13;;
57565;SDS011;63999;43.882;-0.310;2023-12-22T04:35:21;0.10;;;0.10;;
57565;SDS011;63999;43.882;-0.310;2023-12-22T04:37:47;0.10;;;0.10;;
57565;SDS011;63999;43.882;-0.310;2023-12-22T04:40:15;0.10;;;0.10;;
57565;SDS011;63999;43.882;-0.310;2023-12-22T04:42:41;0.10;;;0.10;;
57565;SDS011;63999;43.882;-0.310;2023-12-22T04:45:07;0.10;;;0.10;;
57565;SDS011;63999;43.882;-0.310;2023-12-22T04:47:33;1.10;;;0.10;;
57565;SDS011;63999;43.882;-0.310;2023-12-22T04:49:58;0.60;;;0.15;;
57565;SDS011;63999;43.882;-0.310;2023-12-22T04:52:25;0.10;;;0.10;;
57565;SDS011;63999;43.882;-0.310;2023-12-22T04:54:51;1.10;;;0.32;;
57565;SDS011;63999;43.882;-0.310;2023-12-22T04:57:16;0.10;;;0.10;;
57565;SDS011;63999;43.882;-0.310;2023-12-22T04:59:47;0.10;;;0.10;;
57565;SDS011;63999;43.882;-0.310;2023-12-22T05:02:12;0.25;;;0.13;;
57565;SDS011;63999;43.882;-0.310;2023-12-22T05:04:38;0.10;;;0.10;;
57565;SDS011;63999;43.882;-0.310;2023-12-22T05:07:04;0.10;;;0.10;;
57565;SDS011;63999;43.882;-0.310;2023-12-22T05:09:34;0.10;;;0.10;;
57565;SDS011;63999;43.882;-0.310;2023-12-22T05:12:00;0.45;;;0.30;;
57565;SDS011;63999;43.882;-0.310;2023-12-22T05:14:26;0.25;;;0.20;;
57565;SDS011;63999;43.882;-0.310;2023-12-22T05:16:52;0.75;;;0.13;;
57565;SDS011;63999;43.882;-0.310;2023-12-22T05:19:20;0.10;;;0.10;;
57565;SDS011;63999;43.882;-0.310;2023-12-22T05:21:46;0.30;;;0.20;;
57565;SDS011;63999;43.882;-0.310;2023-12-22T05:24:13;2.08;;;0.20;;
57565;SDS011;63999;43.882;-0.310;2023-12-22T05:26:39;0.20;;;0.20;;
57565;SDS011;63999;43.882;-0.310;2023-12-22T05:29:05;0.25;;;0.10;;
57565;SDS011;63999;43.882;-0.310;2023-12-22T05:31:33;0.73;;;0.20;;
57565;SDS011;63999;43.882;-0.310;2023-12-22T05:33:59;0.10;;;0.10;;
57565;SDS011;63999;43.882;-0.310;2023-12-22T05:36:25;0.40;;;0.13;;
57565;SDS011;63999;43.882;-0.310;2023-12-22T05:38:51;0.32;;;0.20;;
57565;SDS011;63999;43.882;-0.310;2023-12-22T05:41:17;1.85;;;0.20;;
57565;SDS011;63999;43.882;-0.310;2023-12-22T05:43:43;0.98;;;0.20;;
57565;SDS011;63999;43.882;-0.310;2023-12-22T05:46:08;1.80;;;0.20;;
57565;SDS011;63999;43.882;-0.310;2023-12-22T05:48:34;0.75;;;0.20;;
57565;SDS011;63999;43.882;-0.310;2023-12-22T05:51:00;0.28;;;0.03;;
57565;SDS011;63999;43.882;-0.310;2023-12-22T05:53:28;0.13;;;0.13;;
57565;SDS011;63999;43.882;-0.310;2023-12-22T05:55:54;0.35;;;0.15;;
57565;SDS011;63999;43.882;-0.310;2023-12-22T05:58:20;0.65;;;0.20;;
57565;SDS011;63999;43.882;-0.310;2023-12-22T06:00:46;0.68;;;0.10;;
57565;SDS011;63999;43.882;-0.310;2023-12-22T06:03:12;0.75;;;0.20;;
57565;SDS011;63999;43.882;-0.310;2023-12-22T06:05:39;0.10;;;0.10;;
57565;SDS011;63999;43.882;-0.310;2023-12-22T06:08:05;3.00;;;0.30;;
57565;SDS011;63999;43.882;-0.310;2023-12-22T06:10:31;0.28;;;0.10;;
57565;SDS011;63999;43.882;-0.310;2023-12-22T06:12:56;0.40;;;0.20;;
57565;SDS011;63999;43.882;-0.310;2023-12-22T06:15:23;0.50;;;0.20;;
57565;SDS011;63999;43.882;-0.310;2023-12-22T06:17:49;0.10;;;0.10;;
57565;SDS011;63999;43.882;-0.310;2023-12-22T06:20:15;0.10;;;0.10;;
57565;SDS011;63999;43.882;-0.310;2023-12-22T06:22:41;0.10;;;0.10;;
57565;SDS011;63999;43.882;-0.310;2023-12-22T06:25:07;0.55;;;0.30;;
57565;SDS011;63999;43.882;-0.310;2023-12-22T06:27:34;0.80;;;0.20;;
57565;SDS011;63999;43.882;-0.310;2023-12-22T06:30:00;0.98;;;0.30;;
57565;SDS011;63999;43.882;-0.310;2023-12-22T06:32:26;0.15;;;0.10;;
57565;SDS011;63999;43.882;-0.310;2023-12-22T06:34:51;0.10;;;0.10;;
57565;SDS011;63999;43.882;-0.310;2023-12-22T06:37:17;0.45;;;0.10;;
57565;SDS011;63999;43.882;-0.310;2023-12-22T06:39:43;0.10;;;0.10;;
57565;SDS011;63999;43.882;-0.310;2023-12-22T06:42:08;1.85;;;0.13;;
57565;SDS011;63999;43.882;-0.310;2023-12-22T06:44:37;0.10;;;0.10;;
57565;SDS011;63999;43.882;-0.310;2023-12-22T06:47:03;0.63;;;0.10;;
57565;SDS011;63999;43.882;-0.310;2023-12-22T06:49:30;0.52;;;0.20;;
57565;SDS011;63999;43.882;-0.310;2023-12-22T06:51:55;0.22;;;0.10;;
57565;SDS011;63999;43.882;-0.310;2023-12-22T06:54:21;0.15;;;0.10;;
57565;SDS011;63999;43.882;-0.310;2023-12-22T06:56:47;1.23;;;0.15;;
57565;SDS011;63999;43.882;-0.310;2023-12-22T06:59:13;1.75;;;0.15;;
57565;SDS011;63999;43.882;-0.310;2023-12-22T07:01:38;1.60;;;0.22;;
57565;SDS011;63999;43.882;-0.310;2023-12-22T07:04:04;0.57;;;0.20;;
57565;SDS011;63999;43.882;-0.310;2023-12-22T07:06:32;0.10;;;0.10;;
57565;SDS011;63999;43.882;-0.310;2023-12-22T07:11:37;0.10;;;0.10;;
57565;SDS011;63999;43.882;-0.310;2023-12-22T07:14:07;0.57;;;0.28;;
57565;SDS011;63999;43.882;-0.310;2023-12-22T07:16:33;0.10;;;0.10;;
57565;SDS011;63999;43.882;-0.310;2023-12-22T07:19:00;0.10;;;0.10;;
57565;SDS011;63999;43.882;-0.310;2023-12-22T07:21:26;0.50;;;0.20;;
57565;SDS011;63999;43.882;-0.310;2023-12-22T07:23:52;0.13;;;0.13;;
57565;SDS011;63999;43.882;-0.310;2023-12-22T07:26:17;0.28;;;0.20;;
57565;SDS011;63999;43.882;-0.310;2023-12-22T07:28:43;0.60;;;0.25;;
57565;SDS011;63999;43.882;-0.310;2023-12-22T07:31:09;0.15;;;0.10;;
57565;SDS011;63999;43.882;-0.310;2023-12-22T07:33:34;2.40;;;0.10;;
57565;SDS011;63999;43.882;-0.310;2023-12-22T07:36:00;0.10;;;0.10;;
57565;SDS011;63999;43.882;-0.310;2023-12-22T07:38:26;0.30;;;0.10;;
57565;SDS011;63999;43.882;-0.310;2023-12-22T07:40:53;3.42;;;0.40;;
57565;SDS011;63999;43.882;-0.310;2023-12-22T07:43:19;0.22;;;0.17;;
57565;SDS011;63999;43.882;-0.310;2023-12-22T07:45:45;0.10;;;0.10;;
57565;SDS011;63999;43.882;-0.310;2023-12-22T07:48:11;0.28;;;0.20;;
57565;SDS011;63999;43.882;-0.310;2023-12-22T07:50:36;0.10;;;0.10;;
57565;SDS011;63999;43.882;-0.310;2023-12-22T07:53:02;0.10;;;0.10;;
57565;SDS011;63999;43.882;-0.310;2023-12-22T07:55:28;0.20;;;0.20;;
57565;SDS011;63999;43.882;-0.310;2023-12-22T07:57:54;0.32;;;0.20;;
57565;SDS011;63999;43.882;-0.310;2023-12-22T08:00:19;0.10;;;0.10;;
57565;SDS011;63999;43.882;-0.310;2023-12-22T08:02:45;0.17;;;0.10;;
57565;SDS011;63999;43.882;-0.310;2023-12-22T08:05:11;0.10;;;0.10;;
57565;SDS011;63999;43.882;-0.310;2023-12-22T08:07:38;0.22;;;0.20;;
57565;SDS011;63999;43.882;-0.310;2023-12-22T08:10:03;0.25;;;0.13;;
57565;SDS011;63999;43.882;-0.310;2023-12-22T08:12:29;0.45;;;0.10;;
57565;SDS011;63999;43.882;-0.310;2023-12-22T08:14:57;0.10;;;0.10;;
57565;SDS011;63999;43.882;-0.310;2023-12-22T08:17:24;0.13;;;0.13;;
57565;SDS011;63999;43.882;-0.310;2023-12-22T08:19:49;0.08;;;0.08;;
57565;SDS011;63999;43.882;-0.310;2023-12-22T08:22:15;0.10;;;0.10;;
57565;SDS011;63999;43.882;-0.310;2023-12-22T08:24:41;0.25;;;0.10;;
57565;SDS011;63999;43.882;-0.310;2023-12-22T08:27:07;0.73;;;0.20;;
57565;SDS011;63999;43.882;-0.310;2023-12-22T08:29:33;0.22;;;0.22;;
57565;SDS011;63999;43.882;-0.310;2023-12-22T08:32:00;0.43;;;0.40;;
57565;SDS011;63999;43.882;-0.310;2023-12-22T08:34:26;0.35;;;0.10;;
57565;SDS011;63999;43.882;-0.310;2023-12-22T08:36:54;0.32;;;0.30;;
57565;SDS011;63999;43.882;-0.310;2023-12-22T08:39:20;0.55;;;0.40;;
57565;SDS011;63999;43.882;-0.310;2023-12-22T08:41:46;0.20;;;0.15;;
57565;SDS011;63999;43.882;-0.310;2023-12-22T08:44:12;0.20;;;0.20;;
57565;SDS011;63999;43.882;-0.310;2023-12-22T08:46:39;1.60;;;0.20;;
57565;SDS011;63999;43.882;-0.310;2023-12-22T08:49:05;0.20;;;0.20;;
57565;SDS011;63999;43.882;-0.310;2023-12-22T08:51:31;0.47;;;0.40;;
57565;SDS011;63999;43.882;-0.310;2023-12-22T08:53:58;0.55;;;0.20;;
57565;SDS011;63999;43.882;-0.310;2023-12-22T08:56:24;0.10;;;0.10;;
57565;SDS011;63999;43.882;-0.310;2023-12-22T08:58:51;0.28;;;0.10;;
57565;SDS011;63999;43.882;-0.310;2023-12-22T09:01:19;0.28;;;0.28;;
57565;SDS011;63999;43.882;-0.310;2023-12-22T09:03:45;0.43;;;0.20;;
57565;SDS011;63999;43.882;-0.310;2023-12-22T09:06:17;0.10;;;0.10;;
57565;SDS011;63999;43.882;-0.310;2023-12-22T09:08:44;0.50;;;0.17;;
57565;SDS011;63999;43.882;-0.310;2023-12-22T09:11:11;0.40;;;0.20;;
57565;SDS011;63999;43.882;-0.310;2023-12-22T09:13:37;1.67;;;0.55;;
57565;SDS011;63999;43.882;-0.310;2023-12-22T09:16:04;1.55;;;0.20;;
57565;SDS011;63999;43.882;-0.310;2023-12-22T09:18:30;2.13;;;0.10;;
57565;SDS011;63999;43.882;-0.310;2023-12-22T09:20:57;0.70;;;0.30;;
57565;SDS011;63999;43.882;-0.310;2023-12-22T09:23:23;0.43;;;0.20;;
57565;SDS011;63999;43.882;-0.310;2023-12-22T09:25:49;3.13;;;0.20;;
57565;SDS011;63999;43.882;-0.310;2023-12-22T09:28:14;2.10;;;0.40;;
57565;SDS011;63999;43.882;-0.310;2023-12-22T09:30:40;0.32;;;0.30;;
57565;SDS011;63999;43.882;-0.310;2023-12-22T09:33:07;0.30;;;0.20;;
57565;SDS011;63999;43.882;-0.310;2023-12-22T09:35:37;1.85;;;0.30;;
57565;SDS011;63999;43.882;-0.310;2023-12-22T09:38:06;0.25;;;0.10;;
57565;SDS011;63999;43.882;-0.310;2023-12-22T09:40:34;0.10;;;0.10;;
57565;SDS011;63999;43.882;-0.310;2023-12-22T09:43:01;0.65;;;0.20;;
57565;SDS011;63999;43.882;-0.310;2023-12-22T09:45:29;0.10;;;0.10;;
57565;SDS011;63999;43.882;-0.310;2023-12-22T09:47:58;2.00;;;0.13;;
57565;SDS011;63999;43.882;-0.310;2023-12-22T09:50:26;0.17;;;0.17;;
57565;SDS011;63999;43.882;-0.310;2023-12-22T09:52:52;0.95;;;0.20;;
57565;SDS011;63999;43.882;-0.310;2023-12-22T09:55:18;0.38;;;0.22;;
57565;SDS011;63999;43.882;-0.310;2023-12-22T09:57:46;0.20;;;0.10;;
57565;SDS011;63999;43.882;-0.310;2023-12-22T10:00:14;0.68;;;0.20;;
57565;SDS011;63999;43.882;-0.310;2023-12-22T10:02:40;2.25;;;0.28;;
57565;SDS011;63999;43.882;-0.310;2023-12-22T10:05:08;0.10;;;0.10;;
57565;SDS011;63999;43.882;-0.310;2023-12-22T10:07:35;0.38;;;0.15;;
57565;SDS011;63999;43.882;-0.310;2023-12-22T10:10:01;2.03;;;0.30;;
57565;SDS011;63999;43.882;-0.310;2023-12-22T10:12:29;0.35;;;0.30;;
57565;SDS011;63999;43.882;-0.310;2023-12-22T10:14:56;1.85;;;0.35;;
57565;SDS011;63999;43.882;-0.310;2023-12-22T10:17:24;0.20;;;0.20;;
57565;SDS011;63999;43.882;-0.310;2023-12-22T10:19:51;1.25;;;0.30;;
57565;SDS011;63999;43.882;-0.310;2023-12-22T10:22:17;1.08;;;0.40;;
57565;SDS011;63999;43.882;-0.310;2023-12-22T10:24:44;0.22;;;0.13;;
57565;SDS011;63999;43.882;-0.310;2023-12-22T10:27:16;0.50;;;0.30;;
57565;SDS011;63999;43.882;-0.310;2023-12-22T10:29:53;0.47;;;0.22;;
57565;SDS011;63999;43.882;-0.310;2023-12-22T10:34:46;0.30;;;0.30;;
57565;SDS011;63999;43.882;-0.310;2023-12-22T10:37:13;0.57;;;0.10;;
57565;SDS011;63999;43.882;-0.310;2023-12-22T10:39:39;0.30;;;0.20;;
57565;SDS011;63999;43.882;-0.310;2023-12-22T10:42:05;0.10;;;0.10;;
57565;SDS011;63999;43.882;-0.310;2023-12-22T10:44:31;0.20;;;0.20;;
57565;SDS011;63999;43.882;-0.310;2023-12-22T10:46:57;0.90;;;0.20;;
57565;SDS011;63999;43.882;-0.310;2023-12-22T10:49:26;0.10;;;0.10;;
57565;SDS011;63999;43.882;-0.310;2023-12-22T10:51:52;0.35;;;0.22;;
57565;SDS011;63999;43.882;-0.310;2023-12-22T10:54:18;0.17;;;0.13;;
57565;SDS011;63999;43.882;-0.310;2023-12-22T10:56:44;0.10;;;0.10;;
57565;SDS011;63999;43.882;-0.310;2023-12-22T10:59:10;0.43;;;0.10;;
57565;SDS011;63999;43.882;-0.310;2023-12-22T11:01:37;0.25;;;0.17;;
57565;SDS011;63999;43.882;-0.310;2023-12-22T11:04:05;0.68;;;0.22;;
57565;SDS011;63999;43.882;-0.310;2023-12-22T11:06:39;0.30;;;0.30;;
57565;SDS011;63999;43.882;-0.310;2023-12-22T11:09:08;0.10;;;0.10;;
57565;SDS011;63999;43.882;-0.310;2023-12-22T11:11:35;0.10;;;0.10;;
57565;SDS011;63999;43.882;-0.310;2023-12-22T11:14:04;0.20;;;0.15;;
57565;SDS011;63999;43.882;-0.310;2023-12-22T11:16:31;0.20;;;0.20;;
57565;SDS011;63999;43.882;-0.310;2023-12-22T11:19:00;0.13;;;0.13;;
57565;SDS011;63999;43.882;-0.310;2023-12-22T11:21:27;0.20;;;0.20;;
57565;SDS011;63999;43.882;-0.310;2023-12-22T11:23:54;0.30;;;0.20;;
57565;SDS011;63999;43.882;-0.310;2023-12-22T11:26:21;1.15;;;0.43;;
57565;SDS011;63999;43.882;-0.310;2023-12-22T11:28:48;0.10;;;0.10;;
57565;SDS011;63999;43.882;-0.310;2023-12-22T11:31:16;0.15;;;0.15;;
57565;SDS011;63999;43.882;-0.310;2023-12-22T11:33:49;0.93;;;0.35;;
57565;SDS011;63999;43.882;-0.310;2023-12-22T11:36:16;1.20;;;0.20;;
57565;SDS011;63999;43.882;-0.310;2023-12-22T11:38:44;0.35;;;0.30;;
57565;SDS011;63999;43.882;-0.310;2023-12-22T11:41:12;1.13;;;0.30;;
57565;SDS011;63999;43.882;-0.310;2023-12-22T11:43:42;1.15;;;0.30;;
57565;SDS011;63999;43.882;-0.310;2023-12-22T11:46:09;0.50;;;0.20;;
57565;SDS011;63999;43.882;-0.310;2023-12-22T11:48:35;0.55;;;0.43;;
57565;SDS011;63999;43.882;-0.310;2023-12-22T11:51:11;0.32;;;0.10;;
57565;SDS011;63999;43.882;-0.310;2023-12-22T11:53:39;0.90;;;0.28;;
57565;SDS011;63999;43.882;-0.310;2023-12-22T11:56:05;0.65;;;0.10;;
57565;SDS011;63999;43.882;-0.310;2023-12-22T12:01:10;0.50;;;0.28;;
57565;SDS011;63999;43.882;-0.310;2023-12-22T12:03:56;0.10;;;0.10;;
57565;SDS011;63999;43.882;-0.310;2023-12-22T12:08:54;2.58;;;0.50;;
57565;SDS011;63999;43.882;-0.310;2023-12-22T12:11:20;0.25;;;0.20;;
57565;SDS011;63999;43.882;-0.310;2023-12-22T12:13:47;2.50;;;0.50;;
57565;SDS011;63999;43.882;-0.310;2023-12-22T12:16:14;2.58;;;0.20;;
57565;SDS011;63999;43.882;-0.310;2023-12-22T12:18:44;0.40;;;0.40;;
57565;SDS011;63999;43.882;-0.310;2023-12-22T12:21:10;1.00;;;0.30;;
57565;SDS011;63999;43.882;-0.310;2023-12-22T12:23:37;0.20;;;0.20;;
57565;SDS011;63999;43.882;-0.310;2023-12-22T12:26:08;0.30;;;0.20;;
57565;SDS011;63999;43.882;-0.310;2023-12-22T12:28:36;0.30;;;0.28;;
57565;SDS011;63999;43.882;-0.310;2023-12-22T12:31:07;1.42;;;0.35;;
57565;SDS011;63999;43.882;-0.310;2023-12-22T12:33:35;0.20;;;0.20;;
57565;SDS011;63999;43.882;-0.310;2023-12-22T12:36:02;0.30;;;0.20;;
57565;SDS011;63999;43.882;-0.310;2023-12-22T12:41:03;0.60;;;0.60;;
57565;SDS011;63999;43.882;-0.310;2023-12-22T12:43:32;1.25;;;0.40;;
57565;SDS011;63999;43.882;-0.310;2023-12-22T12:46:04;3.40;;;0.32;;
57565;SDS011;63999;43.882;-0.310;2023-12-22T12:48:33;0.40;;;0.30;;
57565;SDS011;63999;43.882;-0.310;2023-12-22T12:51:05;0.45;;;0.40;;
57565;SDS011;63999;43.882;-0.310;2023-12-22T12:53:32;1.17;;;0.35;;
57565;SDS011;63999;43.882;-0.310;2023-12-22T12:55:58;3.13;;;0.20;;
57565;SDS011;63999;43.882;-0.310;2023-12-22T12:58:30;0.82;;;0.30;;
57565;SDS011;63999;43.882;-0.310;2023-12-22T13:01:07;2.38;;;0.40;;
57565;SDS011;63999;43.882;-0.310;2023-12-22T13:03:51;2.53;;;0.32;;
57565;SDS011;63999;43.882;-0.310;2023-12-22T13:06:18;0.63;;;0.40;;
57565;SDS011;63999;43.882;-0.310;2023-12-22T13:08:48;1.23;;;0.20;;
57565;SDS011;63999;43.882;-0.310;2023-12-22T13:11:15;3.00;;;0.40;;
57565;SDS011;63999;43.882;-0.310;2023-12-22T13:13:45;0.68;;;0.40;;
57565;SDS011;63999;43.882;-0.310;2023-12-22T13:16:11;1.13;;;0.25;;
57565;SDS011;63999;43.882;-0.310;2023-12-22T13:18:37;1.40;;;0.45;;
57565;SDS011;63999;43.882;-0.310;2023-12-22T13:21:04;0.20;;;0.20;;
57565;SDS011;63999;43.882;-0.310;2023-12-22T13:23:29;0.77;;;0.30;;
57565;SDS011;63999;43.882;-0.310;2023-12-22T13:25:56;0.63;;;0.28;;
57565;SDS011;63999;43.882;-0.310;2023-12-22T13:28:28;0.52;;;0.32;;
57565;SDS011;63999;43.882;-0.310;2023-12-22T13:30:54;0.65;;;0.20;;
57565;SDS011;63999;43.882;-0.310;2023-12-22T13:33:20;1.55;;;0.45;;
57565;SDS011;63999;43.882;-0.310;2023-12-22T13:35:47;0.35;;;0.20;;
57565;SDS011;63999;43.882;-0.310;2023-12-22T13:38:13;0.68;;;0.20;;
57565;SDS011;63999;43.882;-0.310;2023-12-22T13:40:44;0.20;;;0.20;;
57565;SDS011;63999;43.882;-0.310;2023-12-22T13:43:13;0.20;;;0.20;;
57565;SDS011;63999;43.882;-0.310;2023-12-22T13:45:39;0.40;;;0.30;;
57565;SDS011;63999;43.882;-0.310;2023-12-22T13:48:05;0.25;;;0.13;;
57565;SDS011;63999;43.882;-0.310;2023-12-22T13:50:31;1.77;;;0.30;;
57565;SDS011;63999;43.882;-0.310;2023-12-22T13:53:07;0.38;;;0.28;;
57565;SDS011;63999;43.882;-0.310;2023-12-22T13:55:34;0.20;;;0.17;;
57565;SDS011;63999;43.882;-0.310;2023-12-22T13:58:02;0.38;;;0.30;;
57565;SDS011;63999;43.882;-0.310;2023-12-22T14:00:31;0.22;;;0.20;;
57565;SDS011;63999;43.882;-0.310;2023-12-22T14:02:56;0.70;;;0.28;;
57565;SDS011;63999;43.882;-0.310;2023-12-22T14:05:23;0.10;;;0.10;;
57565;SDS011;63999;43.882;-0.310;2023-12-22T14:07:48;0.32;;;0.32;;
57565;SDS011;63999;43.882;-0.310;2023-12-22T14:10:15;1.08;;;0.35;;
57565;SDS011;63999;43.882;-0.310;2023-12-22T14:12:41;0.77;;;0.70;;
57565;SDS011;63999;43.882;-0.310;2023-12-22T14:15:07;1.30;;;0.32;;
57565;SDS011;63999;43.882;-0.310;2023-12-22T14:17:37;0.32;;;0.22;;
57565;SDS011;63999;43.882;-0.310;2023-12-22T14:20:03;0.90;;;0.40;;
57565;SDS011;63999;43.882;-0.310;2023-12-22T14:22:35;1.25;;;0.32;;
57565;SDS011;63999;43.882;-0.310;2023-12-22T14:25:01;0.30;;;0.20;;
57565;SDS011;63999;43.882;-0.310;2023-12-22T14:27:27;1.38;;;0.28;;
57565;SDS011;63999;43.882;-0.310;2023-12-22T14:29:53;0.57;;;0.35;;
57565;SDS011;63999;43.882;-0.310;2023-12-22T14:32:18;1.25;;;0.35;;
57565;SDS011;63999;43.882;-0.310;2023-12-22T14:34:44;0.47;;;0.35;;
57565;SDS011;63999;43.882;-0.310;2023-12-22T14:37:11;0.10;;;0.10;;
57565;SDS011;63999;43.882;-0.310;2023-12-22T14:39:36;1.35;;;0.30;;
57565;SDS011;63999;43.882;-0.310;2023-12-22T14:42:02;0.30;;;0.20;;
57565;SDS011;63999;43.882;-0.310;2023-12-22T14:44:28;0.28;;;0.17;;
57565;SDS011;63999;43.882;-0.310;2023-12-22T14:46:54;0.30;;;0.30;;